Time;durP1;ratioP1;P1;durP2;ratioP2;P2;SDS_P1;SDS_P2;PMS_P1;PMS_P2;Temp;Humidity;BMP_temperature;BMP_pressure;BME280_temperature;BME280_humidity;BME280_pressure;Samples;Min_cycle;Max_cycle;Signal;HPM_P1;HPM_P2
2023/05/09 00:01:38;;;;;;;3.73;2.63;;;15.00;99.90;;;15.19;66.26;95243.94;5035468;28;20463;-64
2023/05/09 00:04:05;;;;;;;3.30;3.10;;;15.00;99.90;;;15.20;66.26;95244.78;5037679;28;20476;-63
2023/05/09 00:06:32;;;;;;;3.40;3.20;;;14.90;99.90;;;15.17;66.17;95242.47;5035283;28;21047;-63
2023/05/09 00:09:00;;;;;;;4.70;4.30;;;15.00;99.90;;;15.14;66.19;95237.47;5035038;28;20484;-58
2023/05/09 00:11:29;;;;;;;3.83;3.53;;;14.90;99.90;;;15.10;66.27;95236.94;5033277;28;20574;-60
2023/05/09 00:13:56;;;;;;;5.80;4.20;;;14.90;99.90;;;15.07;66.49;95234.59;5039136;28;21013;-58
2023/05/09 00:16:23;;;;;;;3.53;3.30;;;14.90;99.90;;;15.05;66.36;95242.72;5032010;28;20530;-57
2023/05/09 00:18:51;;;;;;;3.57;3.30;;;14.80;99.90;;;15.02;66.45;95232.44;5028475;28;20849;-63
2023/05/09 00:21:18;;;;;;;5.50;3.17;;;14.80;99.90;;;14.98;66.28;95241.69;5036172;28;21001;-59
2023/05/09 00:23:47;;;;;;;3.07;2.87;;;14.80;99.90;;;14.94;66.48;95232.41;5035932;28;21055;-57
2023/05/09 00:26:14;;;;;;;4.30;3.90;;;14.70;99.90;;;14.87;66.66;95229.56;5038516;28;20565;-59
2023/05/09 00:28:43;;;;;;;4.10;3.73;;;14.70;99.90;;;14.83;66.83;95222.09;5039464;28;20499;-58
2023/05/09 00:31:10;;;;;;;3.53;3.23;;;14.60;99.90;;;14.81;66.71;95229.34;5034125;28;20452;-65
2023/05/09 00:33:38;;;;;;;3.60;3.30;;;14.60;99.90;;;14.78;67.10;95221.72;5036340;28;20471;-64
2023/05/09 00:36:06;;;;;;;4.00;3.70;;;14.60;99.90;;;14.75;67.15;95220.22;5036395;28;20452;-58
2023/05/09 00:38:33;;;;;;;2.70;2.50;;;14.60;99.90;;;14.73;67.24;95221.34;5036804;28;20485;-64
2023/05/09 00:41:00;;;;;;;5.10;2.70;;;14.60;99.90;;;14.71;66.91;95221.50;5038662;28;20965;-64
2023/05/09 00:43:27;;;;;;;3.70;3.40;;;14.50;99.90;;;14.69;67.27;95218.19;5037855;28;20479;-58
2023/05/09 00:45:56;;;;;;;3.93;3.53;;;14.50;99.90;;;14.68;67.24;95212.06;5038079;28;20487;-64
2023/05/09 00:48:23;;;;;;;3.20;3.00;;;14.50;99.90;;;14.67;67.21;95213.06;5034431;28;20463;-64
2023/05/09 00:50:52;;;;;;;3.80;3.17;;;14.50;99.90;;;14.68;66.85;95217.34;5036853;28;21076;-61
2023/05/09 00:53:19;;;;;;;2.83;2.63;;;14.50;99.90;;;14.69;66.93;95215.56;5035041;28;20508;-58
2023/05/09 00:55:46;;;;;;;3.40;3.13;;;14.50;99.90;;;14.69;67.20;95228.78;5034049;28;21530;-62
2023/05/09 00:58:14;;;;;;;3.30;2.77;;;14.50;99.90;;;14.71;66.81;95218.88;5030987;28;20484;-58
2023/05/09 01:00:41;;;;;;;3.20;3.00;;;14.50;99.90;;;14.74;67.02;95220.38;5036616;28;20463;-59
2023/05/09 01:03:10;;;;;;;2.90;2.53;;;14.50;99.90;;;14.78;66.74;95225.22;5035053;28;20576;-58
2023/05/09 01:05:43;;;;;;;3.40;3.07;;;14.60;99.90;;;14.79;66.88;95218.91;5035658;28;20531;-56
2023/05/09 01:08:15;;;;;;;3.20;3.00;;;14.60;99.90;;;14.83;67.02;95224.72;5034805;28;21046;-58
2023/05/09 01:10:48;;;;;;;2.47;2.37;;;14.60;99.90;;;14.87;66.49;95223.41;5030357;28;20483;-58
2023/05/09 01:13:19;;;;;;;3.07;2.87;;;14.60;99.90;;;14.87;67.10;95224.25;5034969;28;21030;-64
2023/05/09 01:15:52;;;;;;;4.30;3.80;;;14.70;99.90;;;14.92;66.63;95221.16;5034968;28;20457;-64
2023/05/09 01:18:26;;;;;;;6.47;2.87;;;14.70;99.90;;;14.94;66.49;95224.44;5035778;28;20476;-58
2023/05/09 01:21:03;;;;;;;3.57;3.27;;;14.70;99.90;;;14.97;66.16;95225.97;5030659;28;20452;-64
2023/05/09 01:24:09;;;;;;;3.57;3.20;;;14.70;99.90;;;14.98;66.34;95223.16;5032491;28;21027;-63
2023/05/09 01:26:44;;;;;;;3.33;3.17;;;14.80;99.90;;;14.99;66.04;95232.75;5034941;28;21267;-63
2023/05/09 01:29:36;;;;;;;3.80;3.50;;;14.80;99.90;;;14.98;66.12;95222.31;5033878;28;20552;-58
2023/05/09 01:32:07;;;;;;;4.37;4.00;;;14.70;99.90;;;14.96;65.79;95224.28;5031979;28;20484;-57
2023/05/09 01:34:34;;;;;;;6.50;3.80;;;14.80;99.90;;;14.94;65.76;95221.00;5035159;28;20459;-63
2023/05/09 01:37:02;;;;;;;3.37;3.17;;;14.70;99.90;;;14.90;65.94;95223.09;5036555;28;20596;-64
2023/05/09 01:39:30;;;;;;;3.97;3.67;;;14.70;99.90;;;14.87;65.83;95223.41;5035800;28;20555;-64
2023/05/09 01:41:58;;;;;;;3.90;3.70;;;14.70;99.90;;;14.83;66.38;95224.72;5033913;28;20448;-58
2023/05/09 01:44:26;;;;;;;4.47;4.07;;;14.70;99.90;;;14.80;66.41;95227.69;5029793;28;20451;-57
2023/05/09 01:46:55;;;;;;;3.53;3.33;;;14.60;99.90;;;14.79;66.09;95231.31;5037446;28;20499;-57
2023/05/09 01:49:22;;;;;;;4.80;4.30;;;14.60;99.90;;;14.78;66.42;95235.81;5034253;28;20518;-58
2023/05/09 01:51:50;;;;;;;4.20;3.90;;;14.60;99.90;;;14.77;66.43;95225.38;5035828;28;20459;-57
2023/05/09 01:54:17;;;;;;;3.77;3.47;;;14.60;99.90;;;14.77;66.19;95238.59;5033523;28;20467;-63
2023/05/09 01:56:45;;;;;;;5.30;4.10;;;14.60;99.90;;;14.77;66.38;95234.13;5029954;28;20515;-63
2023/05/09 01:59:14;;;;;;;3.97;3.67;;;14.60;99.90;;;14.78;66.19;95243.75;5038161;28;20472;-59
2023/05/09 02:01:43;;;;;;;3.63;3.33;;;14.60;99.90;;;14.78;66.31;95240.25;5031437;28;20476;-59
2023/05/09 02:04:11;;;;;;;3.93;3.63;;;14.60;99.90;;;14.80;66.33;95240.94;5033488;28;20487;-58
2023/05/09 02:06:38;;;;;;;3.27;3.00;;;14.60;99.90;;;14.81;66.24;95239.94;5034335;28;20499;-60
2023/05/09 02:09:05;;;;;;;3.50;3.20;;;14.60;99.90;;;14.83;66.40;95235.31;5035204;28;20461;-57
2023/05/09 02:11:32;;;;;;;4.27;3.97;;;14.60;99.90;;;14.85;66.40;95236.00;5033835;28;20476;-64
2023/05/09 02:14:00;;;;;;;4.83;3.67;;;14.60;99.90;;;14.88;66.32;95243.63;5033876;28;20476;-63
2023/05/09 02:16:27;;;;;;;4.03;3.70;;;14.70;99.90;;;14.90;66.24;95241.63;5032950;28;20464;-63
2023/05/09 02:18:56;;;;;;;3.90;3.53;;;14.70;99.90;;;14.93;65.89;95240.50;5031363;28;20488;-58
2023/05/09 02:21:23;;;;;;;3.40;3.20;;;14.70;99.90;;;14.94;65.97;95240.34;5033494;28;20517;-63
2023/05/09 02:23:50;;;;;;;3.50;3.30;;;14.70;99.90;;;14.94;65.75;95239.53;5032460;28;20479;-63
2023/05/09 02:26:19;;;;;;;3.50;3.20;;;14.70;99.90;;;14.95;65.52;95233.22;5034316;28;21166;-60
2023/05/09 02:28:46;;;;;;;3.20;3.00;;;14.70;99.90;;;14.93;65.53;95241.31;5035128;28;20990;-58
2023/05/09 02:31:14;;;;;;;3.30;3.07;;;14.70;99.90;;;14.92;65.57;95237.03;5031971;28;20472;-58
2023/05/09 02:33:41;;;;;;;3.23;2.90;;;14.70;99.90;;;14.92;65.44;95237.03;5032970;28;20580;-59
2023/05/09 02:36:10;;;;;;;3.57;3.33;;;14.70;99.90;;;14.93;65.51;95232.56;5031718;28;20464;-57
2023/05/09 02:38:38;;;;;;;3.60;3.30;;;14.70;99.90;;;14.92;65.51;95242.34;5037619;28;20486;-57
2023/05/09 02:41:05;;;;;;;4.80;4.40;;;14.70;99.90;;;14.90;65.30;95231.03;5036899;28;20885;-57
2023/05/09 02:43:33;;;;;;;8.37;3.70;;;14.70;99.90;;;14.90;65.56;95231.03;5038138;28;20476;-58
2023/05/09 02:46:00;;;;;;;3.70;3.50;;;14.70;99.90;;;14.89;65.41;95232.06;5035949;28;20502;-59
2023/05/09 02:48:27;;;;;;;3.37;3.07;;;14.70;99.90;;;14.88;65.59;95236.50;5033595;28;20467;-63
2023/05/09 02:50:56;;;;;;;3.23;3.03;;;14.70;99.90;;;14.88;65.48;95235.69;5033110;28;20440;-63
2023/05/09 02:53:24;;;;;;;3.13;3.03;;;14.60;99.90;;;14.87;65.44;95231.34;5035083;28;20478;-62
2023/05/09 02:55:52;;;;;;;3.40;3.10;;;14.70;99.90;;;14.87;65.29;95231.34;5033196;28;20974;-59
2023/05/09 02:58:21;;;;;;;3.30;3.00;;;14.60;99.90;;;14.87;65.50;95236.66;5037565;28;20495;-63
2023/05/09 03:00:50;;;;;;;4.97;2.63;;;14.70;99.90;;;14.87;65.56;95231.34;5033532;28;20498;-58
2023/05/09 03:03:18;;;;;;;3.40;3.20;;;14.70;99.90;;;14.87;65.78;95236.66;5038895;28;20483;-56
2023/05/09 03:05:45;;;;;;;2.90;2.70;;;14.60;99.90;;;14.84;65.44;95240.47;5038162;28;20441;-61
2023/05/09 03:08:12;;;;;;;3.47;3.27;;;14.60;99.90;;;14.84;65.83;95250.22;5036574;28;20993;-58
2023/05/09 03:10:43;;;;;;;3.13;2.93;;;14.60;99.90;;;14.80;65.64;95243.59;5037695;28;20465;-63
2023/05/09 03:13:10;;;;;;;4.03;3.73;;;14.60;99.90;;;14.78;65.73;95253.47;5037153;28;20499;-62
2023/05/09 03:15:38;;;;;;;4.63;4.30;;;14.60;99.90;;;14.74;65.72;95254.81;5036388;28;20463;-58
2023/05/09 03:18:05;;;;;;;4.33;3.40;;;14.50;99.90;;;14.68;66.35;95259.72;5038680;28;20472;-58
2023/05/09 03:20:32;;;;;;;9.30;3.97;;;14.50;99.90;;;14.62;65.93;95259.50;5036760;28;20457;-62
2023/05/09 03:23:00;;;;;;;4.70;4.30;;;14.40;99.90;;;14.59;66.98;95265.09;5036940;28;20498;-62
2023/05/09 03:25:27;;;;;;;5.80;4.77;;;14.40;99.90;;;14.55;66.87;95277.81;5037085;28;20468;-62
2023/05/09 03:27:56;;;;;;;5.93;5.43;;;14.40;99.90;;;14.53;67.06;95274.47;5031303;28;20491;-59
2023/05/09 03:30:23;;;;;;;8.70;5.83;;;14.30;99.90;;;14.52;66.94;95270.19;5036325;28;20461;-64
2023/05/09 03:32:51;;;;;;;5.30;4.80;;;14.30;99.90;;;14.52;67.07;95275.47;5040269;28;20510;-57
2023/05/09 03:35:19;;;;;;;5.90;5.40;;;14.30;99.90;;;14.52;66.73;95268.34;5039536;28;20451;-58
2023/05/09 03:37:46;;;;;;;29.60;18.57;;;14.30;99.90;;;14.52;66.82;95280.75;5041748;28;20480;-64
2023/05/09 03:40:13;;;;;;;3.90;3.60;;;14.30;99.90;;;14.52;66.99;95270.19;5040544;28;20460;-62
2023/05/09 03:42:41;;;;;;;4.37;3.60;;;14.30;99.90;;;14.53;66.86;95280.63;5037378;28;20477;-58
2023/05/09 03:45:11;;;;;;;8.50;5.20;;;14.30;99.90;;;14.55;66.71;95277.81;5039131;28;20538;-57
2023/05/09 03:47:39;;;;;;;15.37;9.87;;;14.40;99.90;;;14.56;66.87;95278.63;5035304;28;20598;-58
2023/05/09 03:50:08;;;;;;;29.80;22.40;;;14.40;99.90;;;14.53;66.60;95282.41;5037681;28;20465;-66
2023/05/09 03:52:36;;;;;;;12.27;8.93;;;14.40;99.90;;;14.51;67.05;95282.56;5032121;28;20483;-63
2023/05/09 03:55:04;;;;;;;5.57;5.10;;;14.30;99.90;;;14.50;67.04;95280.06;5035926;28;20540;-64
2023/05/09 03:57:31;;;;;;;7.03;5.30;;;14.30;99.90;;;14.48;67.10;95282.91;5037216;28;20461;-58
2023/05/09 03:59:59;;;;;;;4.90;4.60;;;14.30;99.90;;;14.43;66.94;95282.50;5040490;28;20551;-64
2023/05/09 04:02:28;;;;;;;4.60;4.20;;;14.30;99.90;;;14.40;67.11;95282.81;5035833;28;20475;-57
2023/05/09 04:04:55;;;;;;;6.90;4.80;;;14.30;99.90;;;14.38;67.40;95276.03;5037583;28;20782;-66
2023/05/09 04:07:22;;;;;;;4.40;4.00;;;14.20;99.90;;;14.35;67.40;95277.97;5032571;28;21035;-66
2023/05/09 04:09:50;;;;;;;4.70;4.07;;;14.20;99.90;;;14.37;67.52;95277.00;5033158;28;20464;-65
2023/05/09 04:12:17;;;;;;;4.77;4.43;;;14.20;99.90;;;14.33;67.33;95274.66;5035876;28;20479;-65
2023/05/09 04:14:44;;;;;;;7.23;4.10;;;14.20;99.90;;;14.31;67.72;95281.94;5038567;28;20458;-56
2023/05/09 04:17:12;;;;;;;4.83;4.20;;;14.20;99.90;;;14.31;67.60;95292.50;5035529;28;20473;-64
2023/05/09 04:19:41;;;;;;;9.17;4.80;;;14.20;99.90;;;14.31;67.44;95287.22;5039065;28;20493;-57
2023/05/09 04:22:09;;;;;;;5.17;4.13;;;14.10;99.90;;;14.32;67.69;95290.69;5030717;28;20487;-57
2023/05/09 04:24:36;;;;;;;6.90;4.10;;;14.20;99.90;;;14.32;67.65;95288.88;5031949;28;20537;-56
2023/05/09 04:27:04;;;;;;;10.47;7.70;;;14.20;99.90;;;14.36;67.98;95294.72;5030807;28;20492;-65
2023/05/09 04:29:31;;;;;;;10.57;5.23;;;14.20;99.90;;;14.41;67.51;95302.19;5035887;28;21036;-65
2023/05/09 04:31:58;;;;;;;8.90;4.50;;;14.20;99.90;;;14.40;67.66;95287.28;5037756;28;20487;-58
2023/05/09 04:34:26;;;;;;;8.23;4.60;;;14.20;99.90;;;14.45;67.47;95295.59;5034643;28;20977;-62
2023/05/09 04:36:55;;;;;;;5.10;4.70;;;14.30;99.90;;;14.49;67.77;95296.94;5038642;28;20950;-62
2023/05/09 04:39:22;;;;;;;12.00;5.33;;;14.30;99.90;;;14.53;67.86;95301.78;5036241;28;20526;-63
2023/05/09 04:41:50;;;;;;;8.43;4.60;;;14.30;99.90;;;14.58;67.77;95301.31;5039778;28;20453;-61
2023/05/09 04:44:18;;;;;;;9.67;6.27;;;14.40;99.90;;;14.61;67.47;95302.84;5035324;28;20461;-58
2023/05/09 04:46:45;;;;;;;9.00;5.60;;;14.40;99.90;;;14.64;67.22;95307.84;5036714;28;20493;-63
2023/05/09 04:49:12;;;;;;;6.70;4.63;;;14.40;99.90;;;14.64;67.41;95305.19;5039190;28;20462;-59
2023/05/09 04:51:39;;;;;;;6.00;5.50;;;14.50;99.90;;;14.63;67.65;95299.06;5038783;28;20455;-63
2023/05/09 04:54:08;;;;;;;9.90;5.60;;;14.40;99.90;;;14.63;67.03;95309.66;5037384;28;21033;-62
2023/05/09 04:56:35;;;;;;;9.77;5.50;;;14.50;99.90;;;14.65;67.37;95310.31;5036908;28;20489;-63
2023/05/09 04:59:02;;;;;;;11.60;5.30;;;14.40;99.90;;;14.70;67.25;95307.22;5036634;28;20476;-63
2023/05/09 05:01:30;;;;;;;5.97;4.50;;;14.50;99.90;;;14.73;66.83;95298.97;5037972;28;20509;-57
2023/05/09 05:03:57;;;;;;;6.83;4.70;;;14.50;99.90;;;14.77;66.54;95297.69;5037741;28;20539;-63
2023/05/09 05:06:24;;;;;;;4.60;4.30;;;14.60;99.90;;;14.82;66.71;95302.50;5036679;28;20455;-63
2023/05/09 05:08:52;;;;;;;4.40;4.10;;;14.60;99.90;;;14.86;66.09;95301.22;5037192;28;20594;-61
2023/05/09 05:11:20;;;;;;;6.10;4.47;;;14.60;99.90;;;14.91;66.20;95292.81;5030651;28;20452;-62
2023/05/09 05:13:48;;;;;;;6.50;5.27;;;14.70;99.90;;;14.94;66.39;95297.78;5035774;28;21059;-62
2023/05/09 05:16:15;;;;;;;6.07;4.07;;;14.70;99.90;;;14.98;66.07;95299.97;5034379;28;20804;-59
2023/05/09 05:18:42;;;;;;;5.70;5.03;;;14.70;99.90;;;15.04;65.95;95299.34;5036421;28;21174;-59
2023/05/09 05:21:10;;;;;;;9.57;4.37;;;14.80;99.90;;;15.11;66.03;95299.53;5035097;28;20448;-59
2023/05/09 05:23:37;;;;;;;7.57;4.70;;;14.90;99.90;;;15.13;66.01;95289.59;5035153;28;20481;-63
2023/05/09 05:26:04;;;;;;;5.57;4.47;;;14.90;99.90;;;15.16;65.32;95299.91;5038495;28;20452;-57
2023/05/09 05:28:33;;;;;;;6.53;4.30;;;14.90;99.90;;;15.16;65.44;95301.72;5033758;28;20504;-58
2023/05/09 05:31:00;;;;;;;8.00;4.70;;;15.00;99.90;;;15.15;65.58;95303.56;5035517;28;20547;-64
2023/05/09 05:33:28;;;;;;;3.17;2.93;;;14.90;99.90;;;15.18;65.15;95302.38;5033162;28;20471;-59
2023/05/09 05:35:55;;;;;;;5.30;2.90;;;14.90;99.90;;;15.21;65.26;95310.03;5037253;28;20457;-63
2023/05/09 05:38:22;;;;;;;3.20;2.90;;;15.00;99.90;;;15.24;65.08;95307.06;5038718;28;20549;-58
2023/05/09 05:40:49;;;;;;;3.60;3.30;;;15.00;99.90;;;15.28;65.17;95307.59;5035820;28;20942;-63
2023/05/09 05:43:17;;;;;;;3.33;3.00;;;15.00;99.90;;;15.30;64.81;95302.97;5036159;28;20480;-58
2023/05/09 05:45:46;;;;;;;2.90;2.27;;;15.00;99.90;;;15.35;65.32;95305.94;5036626;28;20452;-63
2023/05/09 05:48:13;;;;;;;3.00;2.70;;;15.10;99.90;;;15.40;64.87;95304.50;5036865;28;20498;-59
2023/05/09 05:50:40;;;;;;;2.70;2.60;;;15.10;99.90;;;15.46;64.93;95300.38;5036925;28;20459;-60
2023/05/09 05:53:07;;;;;;;2.17;2.07;;;15.20;99.90;;;15.51;64.78;95313.16;5036466;28;20467;-59
2023/05/09 05:55:35;;;;;;;3.30;2.67;;;15.30;99.90;;;15.60;64.79;95306.91;5033983;28;20441;-61
2023/05/09 05:58:02;;;;;;;2.03;1.93;;;15.30;99.90;;;15.71;64.03;95311.09;5031778;28;20475;-59
2023/05/09 06:00:29;;;;;;;2.10;1.90;;;15.40;99.90;;;15.76;64.05;95309.59;5036411;28;20452;-59
2023/05/09 06:02:58;;;;;;;2.10;1.90;;;15.50;99.90;;;15.83;63.66;95306.34;5036143;28;20477;-58
2023/05/09 06:05:25;;;;;;;4.00;2.13;;;15.60;99.90;;;15.90;63.18;95310.00;5036249;28;20456;-62
2023/05/09 06:07:53;;;;;;;2.40;1.77;;;15.60;99.90;;;15.97;62.94;95310.19;5035708;28;20833;-58
2023/05/09 06:10:20;;;;;;;2.27;2.17;;;15.70;99.90;;;16.02;62.86;95311.38;5031218;28;20501;-59
2023/05/09 06:12:47;;;;;;;5.70;2.20;;;15.80;99.90;;;16.08;62.75;95313.38;5034571;28;20468;-62
2023/05/09 06:15:15;;;;;;;1.80;1.70;;;15.80;99.90;;;16.17;62.30;95316.84;5036969;28;20456;-62
2023/05/09 06:17:42;;;;;;;13.30;2.43;;;15.90;99.90;;;16.26;62.27;95304.44;5037955;28;21059;-62
2023/05/09 06:20:11;;;;;;;4.03;2.27;;;16.00;99.90;;;16.32;61.95;95301.13;5034143;28;20445;-57
2023/05/09 06:22:39;;;;;;;4.87;2.80;;;16.00;99.90;;;16.38;61.51;95302.28;5034547;28;20499;-62
2023/05/09 06:25:06;;;;;;;2.47;2.27;;;16.10;99.90;;;16.41;61.31;95300.13;5037549;28;20467;-58
2023/05/09 06:27:34;;;;;;;2.33;1.97;;;16.10;99.90;;;16.42;61.26;95300.94;5034248;28;20496;-58
2023/05/09 06:30:01;;;;;;;9.23;2.70;;;16.20;99.90;;;16.46;61.07;95299.63;5036468;28;20461;-62
2023/05/09 06:32:28;;;;;;;4.10;1.90;;;16.20;99.90;;;16.56;60.81;95296.81;5033042;28;21066;-61
2023/05/09 06:34:56;;;;;;;1.70;1.60;;;16.20;99.90;;;16.64;61.01;95304.78;5036869;28;20456;-58
2023/05/09 06:37:25;;;;;;;2.70;2.20;;;16.40;99.90;;;16.76;61.10;95302.59;5038634;28;20473;-62
2023/05/09 06:39:52;;;;;;;4.13;2.63;;;16.50;99.90;;;16.94;60.08;95297.97;5032756;28;20472;-61
2023/05/09 06:42:19;;;;;;;8.80;1.90;;;16.60;99.40;;;17.15;59.74;95300.09;5035986;28;21541;-62
2023/05/09 06:44:47;;;;;;;2.20;1.97;;;16.80;99.40;;;17.39;59.88;95290.38;5036154;28;20838;-59
2023/05/09 06:47:14;;;;;;;5.23;2.20;;;17.00;99.40;;;17.56;58.99;95289.31;5034831;28;20496;-64
2023/05/09 06:49:41;;;;;;;4.80;2.17;;;17.20;98.80;;;17.66;58.87;95301.56;5037224;28;20456;-62
2023/05/09 06:52:08;;;;;;;3.10;1.93;;;17.30;98.80;;;17.64;57.17;95298.28;5029519;28;20468;-57
2023/05/09 06:54:37;;;;;;;3.13;2.10;;;17.30;97.30;;;17.61;57.67;95296.78;5036117;28;21125;-62
2023/05/09 06:57:05;;;;;;;6.67;1.97;;;17.30;97.60;;;17.56;57.46;95299.94;5033449;28;20487;-58
2023/05/09 06:59:32;;;;;;;8.13;2.40;;;17.30;97.40;;;17.46;57.89;95299.34;5036180;28;20459;-57
2023/05/09 07:01:59;;;;;;;5.13;2.00;;;17.20;97.40;;;17.41;57.80;95292.88;5036304;28;21029;-62
2023/05/09 07:04:27;;;;;;;2.30;1.90;;;17.20;97.60;;;17.37;57.62;95287.06;5034171;28;20483;-61
2023/05/09 07:06:54;;;;;;;2.73;2.17;;;17.10;97.20;;;17.36;58.40;95282.75;5035655;28;20459;-63
2023/05/09 07:09:26;;;;;;;10.17;2.20;;;17.10;97.50;;;17.35;58.28;95289.06;5036034;28;20876;-62
2023/05/09 07:11:55;;;;;;;3.33;1.73;;;17.10;97.60;;;17.35;58.17;95286.41;5035761;28;20945;-62
2023/05/09 07:14:22;;;;;;;1.70;1.60;;;17.10;97.50;;;17.31;57.94;95288.59;5035986;28;20529;-59
2023/05/09 07:16:49;;;;;;;1.80;1.70;;;17.10;97.50;;;17.24;58.00;95290.25;5035185;28;20932;-59
2023/05/09 07:19:17;;;;;;;2.20;2.00;;;17.00;97.00;;;17.20;57.75;95284.47;5035263;28;20468;-61
2023/05/09 07:21:44;;;;;;;1.30;1.20;;;17.00;97.10;;;17.21;57.43;95287.94;5037193;28;20984;-62
2023/05/09 07:24:11;;;;;;;2.63;1.53;;;17.00;97.00;;;17.20;57.04;95295.09;5034420;28;20456;-63
2023/05/09 07:26:39;;;;;;;2.37;1.43;;;16.90;96.70;;;17.17;57.21;95291.97;5035542;28;20464;-57
2023/05/09 07:29:08;;;;;;;9.03;2.13;;;16.90;96.50;;;17.12;56.88;95295.13;5034940;28;20491;-62
2023/05/09 07:31:35;;;;;;;1.40;1.30;;;16.90;96.30;;;17.08;56.93;95299.09;5035750;28;20488;-57
2023/05/09 07:34:02;;;;;;;1.90;1.07;;;16.80;96.40;;;17.06;56.99;95298.47;5035759;28;20484;-59
2023/05/09 07:36:30;;;;;;;4.07;2.03;;;16.80;96.30;;;17.00;57.42;95304.44;5037045;28;20893;-63
2023/05/09 07:38:57;;;;;;;2.40;1.50;;;16.80;96.30;;;16.96;57.30;95300.47;5033832;28;20875;-62
2023/05/09 07:41:25;;;;;;;1.37;1.27;;;16.70;96.30;;;16.94;57.13;95302.47;5036774;28;20899;-57
2023/05/09 07:43:52;;;;;;;7.03;1.50;;;16.70;96.40;;;16.88;57.10;95301.31;5033724;28;20813;-58
2023/05/09 07:46:21;;;;;;;3.43;1.80;;;16.70;96.30;;;16.80;57.15;95298.63;5036045;28;20836;-59
2023/05/09 07:48:49;;;;;;;2.50;1.50;;;16.60;96.30;;;16.71;57.52;95300.47;5038672;28;21038;-63
2023/05/09 07:51:16;;;;;;;1.63;1.40;;;16.50;96.40;;;16.66;57.67;95300.97;5038345;28;20447;-63
2023/05/09 07:53:43;;;;;;;1.50;1.40;;;16.50;96.40;;;16.62;57.82;95297.00;5039556;28;20826;-58
2023/05/09 07:56:12;;;;;;;3.03;1.60;;;16.40;96.50;;;16.56;57.85;95300.31;5042192;28;20447;-62
2023/05/09 07:58:39;;;;;;;3.90;1.80;;;16.40;96.70;;;16.52;57.93;95304.28;5040583;28;20503;-58
2023/05/09 08:01:06;;;;;;;2.33;1.90;;;16.30;96.80;;;16.48;58.17;95293.19;5041333;28;20835;-63
2023/05/09 08:03:35;;;;;;;2.90;2.10;;;16.30;96.90;;;16.45;58.26;95290.84;5034035;28;20850;-62
2023/05/09 08:06:02;;;;;;;2.93;2.50;;;16.30;97.00;;;16.43;58.30;95292.81;5042179;28;20532;-60
2023/05/09 08:08:30;;;;;;;4.90;2.87;;;16.20;97.00;;;16.41;58.19;95294.81;5038291;28;20491;-63
2023/05/09 08:10:57;;;;;;;6.40;2.60;;;16.20;97.10;;;16.43;58.68;95295.47;5039955;28;20870;-64
2023/05/09 08:13:24;;;;;;;1.90;1.80;;;16.20;97.40;;;16.49;58.72;95300.13;5040863;28;20526;-63
2023/05/09 08:15:52;;;;;;;1.77;1.20;;;16.20;97.40;;;16.54;58.46;95296.97;5035148;28;20452;-62
2023/05/09 08:18:19;;;;;;;2.93;1.70;;;16.30;97.30;;;16.69;58.58;95299.81;5040595;28;20476;-59
2023/05/09 08:20:48;;;;;;;1.57;1.47;;;16.40;97.20;;;16.79;57.89;95300.47;5039083;28;21033;-59
2023/05/09 08:23:15;;;;;;;8.23;1.50;;;16.50;97.00;;;16.93;57.64;95303.44;5036310;28;20464;-58
2023/05/09 08:25:42;;;;;;;2.03;1.83;;;16.70;96.70;;;17.00;57.60;95305.28;5040288;28;20563;-63
2023/05/09 08:28:09;;;;;;;2.50;1.87;;;16.70;96.50;;;17.09;57.56;95303.44;5037920;28;20831;-63
2023/05/09 08:30:37;;;;;;;6.83;1.60;;;16.80;96.60;;;17.16;57.38;95301.75;5037679;28;20468;-58
2023/05/09 08:33:04;;;;;;;3.00;1.33;;;16.90;96.50;;;17.22;57.56;95286.13;5039467;28;20475;-58
2023/05/09 08:35:32;;;;;;;2.47;2.23;;;17.00;96.60;;;17.34;57.03;95284.75;5037773;28;20824;-57
2023/05/09 08:38:00;;;;;;;4.87;2.17;;;17.10;96.10;;;17.43;56.77;95294.38;5038394;28;20488;-57
2023/05/09 08:40:28;;;;;;;5.07;1.53;;;17.10;96.20;;;17.51;56.08;95293.50;5039376;28;20538;-62
2023/05/09 08:42:55;;;;;;;1.60;1.50;;;17.20;95.80;;;17.55;56.01;95295.66;5036693;28;20469;-63
2023/05/09 08:45:26;;;;;;;4.00;1.33;;;17.30;95.60;;;17.53;55.67;95300.28;5033099;28;20499;-63
2023/05/09 08:47:53;;;;;;;2.13;1.30;;;17.30;95.30;;;17.47;55.58;95298.31;5038967;28;20539;-58
2023/05/09 08:50:21;;;;;;;3.10;1.57;;;17.30;95.30;;;17.39;56.22;95298.38;5035973;28;20453;-58
2023/05/09 08:52:48;;;;;;;1.37;1.07;;;17.20;95.10;;;17.35;55.71;95291.72;5038213;28;20521;-62
2023/05/09 08:55:17;;;;;;;3.80;1.00;;;17.10;95.00;;;17.38;55.27;95283.41;5038247;28;20506;-62
2023/05/09 08:57:44;;;;;;;2.60;0.93;;;17.10;94.80;;;17.41;55.53;95293.69;5041155;28;20494;-57
2023/05/09 09:00:14;;;;;;;2.20;1.20;;;17.20;94.60;;;17.50;54.81;95295.31;5038057;28;20459;-63
2023/05/09 09:02:41;;;;;;;2.77;0.60;;;17.20;94.60;;;17.65;54.42;95297.28;5035920;28;20565;-62
2023/05/09 09:05:10;;;;;;;0.80;0.70;;;17.40;94.50;;;17.79;54.41;95290.41;5037620;28;21020;-63
2023/05/09 09:07:37;;;;;;;3.77;0.63;;;17.50;94.20;;;17.85;53.88;95290.50;5037665;28;20467;-58
2023/05/09 09:10:06;;;;;;;1.00;0.80;;;17.60;93.50;;;17.96;52.94;95292.00;5038386;28;20460;-58
2023/05/09 09:12:36;;;;;;;0.90;0.60;;;17.60;92.50;;;18.05;53.79;95290.13;5040185;28;20835;-63
2023/05/09 09:15:05;;;;;;;1.10;0.70;;;17.70;92.80;;;18.13;53.37;95282.06;5034672;28;21016;-64
2023/05/09 09:17:33;;;;;;;0.90;0.60;;;17.90;92.80;;;18.21;52.82;95292.66;5039117;28;20519;-58
2023/05/09 09:20:04;;;;;;;1.07;0.53;;;17.90;92.80;;;18.20;51.95;95285.69;5037274;28;20455;-62
2023/05/09 09:22:33;;;;;;;1.40;0.97;;;17.90;91.90;;;18.15;52.51;95282.72;5038013;28;20482;-62
2023/05/09 09:25:00;;;;;;;0.90;0.80;;;17.90;91.80;;;18.13;52.30;95281.25;5038456;28;20967;-59
2023/05/09 09:27:28;;;;;;;0.70;0.43;;;17.90;92.00;;;18.12;52.75;95287.56;5036754;28;20527;-63
2023/05/09 09:30:06;;;;;;;8.30;0.70;;;17.90;91.80;;;18.11;51.98;95284.09;5031433;28;20500;-60
2023/05/09 09:32:34;;;;;;;0.90;0.60;;;17.90;91.70;;;18.11;52.41;95289.41;5037242;28;20858;-59
2023/05/09 09:35:05;;;;;;;0.90;0.70;;;17.90;91.80;;;18.10;52.00;95282.44;5039538;28;20452;-63
2023/05/09 09:37:34;;;;;;;2.40;0.80;;;17.90;91.60;;;18.14;52.56;95289.06;5037780;28;20471;-62
2023/05/09 09:40:01;;;;;;;0.90;0.77;;;17.90;91.80;;;18.18;52.26;95279.69;5036333;28;20491;-64
2023/05/09 09:42:39;;;;;;;0.90;0.80;;;17.90;91.50;;;18.27;52.55;95283.97;5037469;28;21048;-59
2023/05/09 09:45:11;;;;;;;5.13;1.03;;;18.00;91.60;;;18.41;51.49;95289.53;5034446;28;20546;-59
2023/05/09 09:47:38;;;;;;;5.70;0.70;;;18.10;91.10;;;18.57;51.71;95288.56;5037908;28;20472;-62
2023/05/09 09:50:11;;;;;;;1.33;1.23;;;18.20;91.40;;;18.74;51.26;95289.25;5036102;28;20900;-58
2023/05/09 09:52:44;;;;;;;1.30;0.90;;;18.40;91.10;;;18.84;51.61;95286.34;5038941;28;20561;-63
2023/05/09 09:55:12;;;;;;;3.10;0.70;;;18.50;90.90;;;18.90;51.14;95299.81;5035201;28;20453;-63
2023/05/09 09:57:42;;;;;;;2.90;0.90;;;18.60;90.40;;;18.87;50.79;95289.53;5035272;28;20953;-57
2023/05/09 10:00:13;;;;;;;3.60;1.33;;;18.60;89.90;;;18.79;50.49;95278.88;5038117;28;20448;-60
2023/05/09 10:02:53;;;;;;;1.87;1.20;;;18.60;88.60;;;18.72;50.42;95283.28;5035069;28;20460;-63
2023/05/09 10:05:21;;;;;;;1.40;1.30;;;18.50;88.80;;;18.74;50.98;95289.25;5037407;28;20444;-59
2023/05/09 10:07:54;;;;;;;1.20;0.90;;;18.50;89.30;;;18.73;51.05;95284.94;5035946;28;20472;-59
2023/05/09 10:10:21;;;;;;;0.90;0.80;;;18.50;89.30;;;18.72;50.80;95280.63;5036997;28;21223;-63
2023/05/09 10:12:49;;;;;;;3.10;0.97;;;18.50;89.70;;;18.71;51.28;95273.63;5036229;28;20471;-63
2023/05/09 10:15:20;;;;;;;1.60;1.10;;;18.50;90.10;;;18.76;51.40;95273.91;5036722;28;20949;-59
2023/05/09 10:17:49;;;;;;;2.60;1.37;;;18.50;90.30;;;18.81;51.29;95263.56;5035925;28;20483;-58
2023/05/09 10:20:16;;;;;;;1.10;1.00;;;18.50;90.30;;;18.87;50.84;95257.53;5035542;28;20463;-59
2023/05/09 10:22:44;;;;;;;1.40;1.30;;;18.60;90.00;;;18.91;50.98;95268.66;5037544;28;20473;-59